Time;durP1;ratioP1;P1;durP2;ratioP2;P2;SDS_P1;SDS_P2;PMS_P1;PMS_P2;Temp;Humidity;BMP_temperature;BMP_pressure;BME280_temperature;BME280_humidity;BME280_pressure;Samples;Min_cycle;Max_cycle;Signal;HPM_P1;HPM_P2
2021/05/28 00:00:47;;;;;;;446.50;276.10;;;;;;;10.60;68.79;98947.09;5046064;28;20124;-61
2021/05/28 00:03:13;;;;;;;449.27;282.03;;;;;;;10.56;68.74;98941.16;5046084;28;20037;-61
2021/05/28 00:05:39;;;;;;;442.30;269.20;;;;;;;10.51;68.73;98945.50;5046664;28;20334;-61
2021/05/28 00:08:04;;;;;;;451.23;285.63;;;;;;;10.51;68.31;98942.94;5051084;28;20044;-61
2021/05/28 00:10:30;;;;;;;443.47;270.93;;;;;;;10.45;68.79;98941.28;5048979;28;20442;-61
2021/05/28 00:12:55;;;;;;;444.63;272.70;;;;;;;10.42;68.56;98946.47;5046325;28;20524;-61
2021/05/28 00:15:21;;;;;;;443.93;269.87;;;;;;;10.44;68.14;98943.84;5047142;28;20037;-61
2021/05/28 00:17:46;;;;;;;447.57;276.40;;;;;;;10.43;68.13;98944.75;5052089;28;20033;-61
2021/05/28 00:20:14;;;;;;;442.07;265.37;;;;;;;10.42;68.44;98950.75;5048763;28;20166;-61
2021/05/28 00:22:43;;;;;;;443.93;271.07;;;;;;;10.45;67.86;98945.56;5051911;28;20063;-61
2021/05/28 00:25:10;;;;;;;444.10;275.20;;;;;;;10.51;67.68;98946.34;5047872;28;20713;-61
2021/05/28 00:27:36;;;;;;;444.93;277.60;;;;;;;10.42;68.18;98943.91;5044487;28;20271;-61
2021/05/28 00:30:04;;;;;;;443.10;271.80;;;;;;;10.47;68.41;98943.84;5047635;28;20290;-61
2021/05/28 00:32:29;;;;;;;444.63;275.10;;;;;;;10.48;67.91;98950.66;5049512;28;20080;-61
2021/05/28 00:34:55;;;;;;;448.13;279.13;;;;;;;10.52;67.64;98947.19;5049545;28;20291;-61
2021/05/28 00:37:20;;;;;;;449.67;284.60;;;;;;;10.50;67.70;98941.22;5048038;28;20032;-61
2021/05/28 00:39:46;;;;;;;445.07;277.40;;;;;;;10.45;68.04;98945.56;5044491;28;20327;-61
2021/05/28 00:42:12;;;;;;;439.63;265.13;;;;;;;10.44;67.22;98941.28;5046938;28;20036;-61
2021/05/28 00:44:41;;;;;;;440.93;270.20;;;;;;;10.47;67.29;98943.84;5047271;28;20045;-61
2021/05/28 00:47:08;;;;;;;446.97;271.67;;;;;;;10.47;67.36;98948.97;5049306;28;20079;-61
2021/05/28 00:49:34;;;;;;;439.93;261.60;;;;;;;10.53;67.12;98954.00;5048704;28;20505;-61
2021/05/28 00:51:59;;;;;;;444.03;270.50;;;;;;;10.53;66.51;98965.09;5045914;28;20294;-61
2021/05/28 00:54:25;;;;;;;447.33;284.40;;;;;;;10.59;66.27;98953.94;5047496;28;20279;-61
2021/05/28 00:56:51;;;;;;;448.87;272.77;;;;;;;10.62;66.10;98948.75;5047337;28;20271;-61
2021/05/28 00:59:18;;;;;;;451.57;283.27;;;;;;;10.64;66.29;98962.41;5049157;28;20028;-61
2021/05/28 01:01:43;;;;;;;451.80;282.17;;;;;;;10.62;66.30;98959.00;5047948;28;20387;-61
2021/05/28 01:04:09;;;;;;;446.73;269.37;;;;;;;10.63;66.64;98954.72;5048371;28;20274;-60
2021/05/28 01:06:35;;;;;;;450.50;283.97;;;;;;;10.66;66.79;98959.78;5043672;28;20029;-61
2021/05/28 01:09:01;;;;;;;448.47;285.10;;;;;;;10.69;66.30;98963.19;5045359;28;20393;-61
2021/05/28 01:11:26;;;;;;;446.27;275.07;;;;;;;10.65;66.75;98955.56;5047160;28;20268;-61
2021/05/28 01:13:52;;;;;;;444.13;275.40;;;;;;;10.69;66.57;98959.78;5047133;28;20558;-61
2021/05/28 01:16:18;;;;;;;442.33;264.40;;;;;;;10.78;66.54;98951.94;5046548;28;20033;-61
2021/05/28 01:18:44;;;;;;;443.53;272.63;;;;;;;10.72;66.13;98950.31;5047288;28;20099;-61
2021/05/28 01:21:10;;;;;;;447.73;281.77;;;;;;;10.73;66.62;98944.31;5050128;28;20036;-60
2021/05/28 01:23:36;;;;;;;455.17;288.33;;;;;;;10.74;66.85;98938.31;5048614;28;20631;-62
2021/05/28 01:26:03;;;;;;;454.70;293.97;;;;;;;10.74;67.18;98942.59;5048044;28;20056;-62
2021/05/28 01:28:29;;;;;;;453.57;291.87;;;;;;;10.71;67.29;98932.38;5049729;28;20268;-61
2021/05/28 01:30:55;;;;;;;448.93;279.23;;;;;;;10.67;67.25;98928.16;5047983;28;20291;-61
2021/05/28 01:33:21;;;;;;;446.33;282.53;;;;;;;10.58;67.31;98920.59;5046574;28;20276;-61
2021/05/28 01:35:46;;;;;;;451.40;290.70;;;;;;;10.64;67.49;98931.63;5049461;28;20294;-60
2021/05/28 01:38:12;;;;;;;441.00;274.07;;;;;;;10.57;67.82;98922.31;5050361;28;20059;-61
2021/05/28 01:40:37;;;;;;;441.87;268.30;;;;;;;10.51;68.25;98925.84;5050324;28;20509;-61
2021/05/28 01:43:02;;;;;;;464.37;298.07;;;;;;;10.45;68.28;98920.78;5048190;28;20449;-61
2021/05/28 01:45:28;;;;;;;444.63;279.07;;;;;;;10.34;68.63;98906.44;5052232;28;20064;-62
2021/05/28 01:47:53;;;;;;;443.30;273.80;;;;;;;10.36;68.33;98926.03;5050165;28;20036;-62
2021/05/28 01:50:19;;;;;;;448.20;282.67;;;;;;;10.30;68.88;98928.69;5030874;28;20045;-60
2021/05/28 01:52:46;;;;;;;449.93;288.90;;;;;;;10.29;69.17;98924.44;5030153;28;20061;-60
2021/05/28 01:55:14;;;;;;;446.13;281.63;;;;;;;10.23;69.62;98928.75;5029378;28;20059;-59
2021/05/28 01:57:40;;;;;;;440.90;264.83;;;;;;;10.25;68.88;98927.03;5030485;28;20279;-60
2021/05/28 02:00:09;;;;;;;443.40;269.67;;;;;;;10.25;69.12;98927.91;5029352;28;20655;-61
2021/05/28 02:02:34;;;;;;;441.63;262.03;;;;;;;10.20;69.07;98924.53;5030875;28;20461;-62
2021/05/28 02:05:00;;;;;;;443.73;261.80;;;;;;;10.13;69.78;98928.03;5033036;28;20276;-60
2021/05/28 02:07:25;;;;;;;438.47;259.47;;;;;;;10.17;69.31;98923.75;5030986;28;20064;-60
2021/05/28 02:09:51;;;;;;;442.47;266.73;;;;;;;10.17;69.18;98924.59;5031192;28;20072;-60
2021/05/28 02:12:16;;;;;;;438.97;258.53;;;;;;;10.22;68.72;98930.50;5032783;28;20338;-60
2021/05/28 02:14:42;;;;;;;442.63;259.17;;;;;;;10.23;68.62;98933.88;5029924;28;20036;-62
2021/05/28 02:17:09;;;;;;;438.73;261.83;;;;;;;10.28;68.83;98943.22;5029432;28;20321;-62
2021/05/28 02:19:34;;;;;;;450.23;272.47;;;;;;;10.26;69.17;98936.44;5032338;28;20770;-62
2021/05/28 02:22:00;;;;;;;440.43;259.63;;;;;;;10.29;68.91;98941.50;5029015;28;20268;-61
2021/05/28 02:24:25;;;;;;;442.77;270.10;;;;;;;10.31;68.47;98932.91;5030345;28;20029;-62
2021/05/28 02:26:55;;;;;;;442.00;268.00;;;;;;;10.29;68.58;98939.81;5031058;28;20022;-61
2021/05/28 02:29:21;;;;;;;447.17;273.47;;;;;;;10.28;69.19;98945.78;5026281;28;20025;-62
2021/05/28 02:31:46;;;;;;;442.17;269.13;;;;;;;10.28;69.00;98939.81;5031429;28;20294;-61
2021/05/28 02:34:11;;;;;;;437.30;255.80;;;;;;;10.24;69.05;98939.00;5031623;28;20697;-62
2021/05/28 02:36:37;;;;;;;444.27;273.33;;;;;;;10.22;69.32;98934.78;5032748;28;20378;-60
2021/05/28 02:39:04;;;;;;;444.27;267.13;;;;;;;10.24;69.16;98927.91;5028575;28;20080;-62
2021/05/28 02:41:29;;;;;;;441.37;257.53;;;;;;;10.22;69.30;98932.22;5031173;28;20409;-61
2021/05/28 02:43:55;;;;;;;440.63;266.77;;;;;;;10.20;69.57;98933.94;5030348;28;20362;-61
2021/05/28 02:46:20;;;;;;;440.73;264.30;;;;;;;10.24;69.90;98930.47;5031586;28;20052;-60
2021/05/28 02:48:45;;;;;;;442.33;263.63;;;;;;;10.24;70.12;98935.59;5035455;28;20777;-60
2021/05/28 02:51:11;;;;;;;439.77;257.07;;;;;;;10.24;69.65;98944.13;5049070;28;20032;-62
2021/05/28 02:53:36;;;;;;;440.93;265.43;;;;;;;10.15;70.53;98943.34;5050321;28;20370;-61
2021/05/28 02:56:04;;;;;;;440.73;260.60;;;;;;;10.17;70.57;98939.97;5050833;28;20409;-62
2021/05/28 02:58:30;;;;;;;441.20;255.00;;;;;;;10.10;70.77;98925.47;5051646;28;20043;-62
2021/05/28 03:00:55;;;;;;;445.90;264.13;;;;;;;10.15;70.62;98931.44;5051144;28;20271;-62
2021/05/28 03:03:21;;;;;;;443.37;273.80;;;;;;;10.21;71.21;98945.88;5048515;28;20025;-62
2021/05/28 03:05:47;;;;;;;445.43;276.87;;;;;;;10.20;70.93;98942.47;5048059;28;20048;-61
2021/05/28 03:08:13;;;;;;;442.97;267.93;;;;;;;10.21;71.14;98944.19;5049193;28;20040;-62
2021/05/28 03:10:38;;;;;;;440.37;258.87;;;;;;;10.14;71.15;98946.81;5052355;28;20283;-62
2021/05/28 03:13:04;;;;;;;445.23;266.73;;;;;;;10.12;71.21;98949.38;5050803;28;20086;-61
2021/05/28 03:15:29;;;;;;;440.10;252.40;;;;;;;10.15;71.12;98946.81;5048009;28;20044;-62
2021/05/28 03:17:54;;;;;;;441.03;257.90;;;;;;;10.13;71.23;98943.41;5051857;28;20294;-62
2021/05/28 03:20:26;;;;;;;446.87;270.83;;;;;;;10.16;71.52;98947.66;5049257;28;20037;-62
2021/05/28 03:22:51;;;;;;;447.57;265.10;;;;;;;10.13;71.72;98947.66;5047339;28;20055;-62
2021/05/28 03:25:17;;;;;;;444.57;266.03;;;;;;;10.19;71.62;98961.28;5049537;28;20259;-62
2021/05/28 03:27:44;;;;;;;442.73;262.93;;;;;;;10.18;71.28;98951.91;5048774;28;20052;-61
2021/05/28 03:30:11;;;;;;;441.60;260.30;;;;;;;10.25;70.84;98960.34;5046821;28;20314;-62
2021/05/28 03:32:37;;;;;;;441.60;260.03;;;;;;;10.28;71.63;98960.31;5049497;28;20263;-61
2021/05/28 03:35:03;;;;;;;443.80;276.47;;;;;;;10.35;70.59;98961.94;5046410;28;20278;-61
2021/05/28 03:37:28;;;;;;;444.43;271.33;;;;;;;10.37;71.23;98965.31;5045983;28;20306;-61
2021/05/28 03:39:54;;;;;;;444.40;271.47;;;;;;;10.43;70.49;98962.69;5047526;28;20298;-61
2021/05/28 03:42:20;;;;;;;444.17;274.43;;;;;;;10.52;70.46;98971.09;5046419;28;20029;-61
2021/05/28 03:44:46;;;;;;;446.77;276.00;;;;;;;10.56;70.02;98977.06;5046461;28;20064;-61
2021/05/28 03:47:12;;;;;;;447.60;280.60;;;;;;;10.66;69.95;98972.63;5047715;28;20044;-61
2021/05/28 03:49:39;;;;;;;446.43;283.10;;;;;;;10.75;69.80;98970.78;5041786;28;20317;-61
2021/05/28 03:52:05;;;;;;;446.90;283.17;;;;;;;10.82;70.08;98980.06;5047657;28;20052;-61
2021/05/28 03:54:30;;;;;;;449.43;298.33;;;;;;;10.84;69.54;98980.91;5048958;28;20665;-62
2021/05/28 03:56:56;;;;;;;444.83;275.73;;;;;;;10.93;69.45;98973.09;5045514;28;20119;-61
2021/05/28 03:59:21;;;;;;;448.07;284.83;;;;;;;11.00;69.49;98982.38;5047085;28;20024;-61
2021/05/28 04:01:47;;;;;;;449.80;286.50;;;;;;;11.10;69.47;98971.97;5048398;28;20059;-62
2021/05/28 04:04:13;;;;;;;450.17;296.87;;;;;;;11.14;69.28;98978.75;5046951;28;20029;-61
2021/05/28 04:06:38;;;;;;;444.23;284.70;;;;;;;11.27;68.92;98986.25;5047523;28;20669;-61
2021/05/28 04:09:04;;;;;;;451.57;298.67;;;;;;;11.26;68.79;98979.41;5047807;28;20033;-61
2021/05/28 04:11:30;;;;;;;445.73;287.00;;;;;;;11.29;69.12;98973.38;5049489;28;20029;-61
2021/05/28 04:13:55;;;;;;;450.53;297.63;;;;;;;11.34;68.30;98980.13;5048127;28;20275;-61
2021/05/28 04:16:21;;;;;;;442.97;279.13;;;;;;;11.39;68.31;98983.47;5046728;28;20033;-61
2021/05/28 04:18:46;;;;;;;443.50;283.23;;;;;;;11.50;67.71;98977.31;5048341;28;20036;-61
2021/05/28 04:21:12;;;;;;;452.17;304.77;;;;;;;11.48;68.38;98982.47;5038859;28;20036;-61
2021/05/28 04:23:38;;;;;;;451.67;305.77;;;;;;;11.57;67.82;98984.03;5049166;28;20052;-61
2021/05/28 04:26:03;;;;;;;452.97;302.77;;;;;;;11.61;67.09;98988.25;5048655;28;20036;-61
2021/05/28 04:28:29;;;;;;;452.20;309.40;;;;;;;11.61;67.33;98981.38;5046493;28;20112;-61
2021/05/28 04:30:56;;;;;;;449.73;302.17;;;;;;;11.74;66.94;98982.03;5046137;28;20047;-62
2021/05/28 04:33:21;;;;;;;463.70;327.07;;;;;;;11.70;67.18;99001.78;5047196;28;20327;-61
2021/05/28 04:35:47;;;;;;;453.47;315.20;;;;;;;11.85;67.12;98995.53;5048751;28;20267;-62
2021/05/28 04:38:12;;;;;;;466.23;323.90;;;;;;;11.87;67.44;98992.06;5045702;28;20021;-61
2021/05/28 04:40:38;;;;;;;450.13;315.43;;;;;;;11.92;66.76;98988.56;5051486;28;20111;-61
2021/05/28 04:43:03;;;;;;;449.97;314.13;;;;;;;12.01;66.71;98990.97;5037024;28;20029;-61
2021/05/28 04:45:29;;;;;;;448.90;316.40;;;;;;;12.06;66.01;99004.56;5049827;28;20025;-62
2021/05/28 04:47:54;;;;;;;456.43;329.43;;;;;;;12.14;66.48;98992.41;5051628;28;20297;-62
2021/05/28 04:50:21;;;;;;;456.87;330.10;;;;;;;12.17;66.22;98995.78;5046346;28;20045;-60
2021/05/28 04:52:46;;;;;;;452.13;324.47;;;;;;;12.26;65.92;98997.34;5044916;28;20033;-62
2021/05/28 04:55:13;;;;;;;453.23;327.90;;;;;;;12.44;65.05;98996.09;5039456;28;20275;-60
2021/05/28 04:57:39;;;;;;;459.17;343.53;;;;;;;12.36;64.91;99009.09;5050853;28;20036;-60
2021/05/28 05:00:06;;;;;;;453.67;329.43;;;;;;;12.41;65.35;99014.16;5052109;28;20976;-61
2021/05/28 05:02:32;;;;;;;455.57;330.30;;;;;;;12.51;64.60;99011.38;5052515;28;20287;-60
2021/05/28 05:04:57;;;;;;;454.73;329.87;;;;;;;12.55;63.92;99007.88;5049325;28;20510;-60
2021/05/28 05:07:23;;;;;;;456.00;339.47;;;;;;;12.44;64.68;99002.09;5051275;28;20035;-60
2021/05/28 05:09:49;;;;;;;455.67;334.77;;;;;;;12.42;64.10;99019.28;5050535;28;20519;-61
2021/05/28 05:12:14;;;;;;;457.27;336.60;;;;;;;12.52;64.47;99020.78;5049347;28;20263;-60
2021/05/28 05:14:39;;;;;;;452.03;330.87;;;;;;;12.57;64.29;99020.69;5049121;28;20028;-63
2021/05/28 05:17:05;;;;;;;453.50;332.23;;;;;;;12.35;64.12;99028.81;5049803;28;20041;-62
2021/05/28 05:19:31;;;;;;;455.83;341.20;;;;;;;12.47;64.22;99038.03;5053761;28;20313;-61
2021/05/28 05:21:56;;;;;;;469.27;347.10;;;;;;;12.44;64.17;99037.22;5034209;28;20314;-61
2021/05/28 05:24:21;;;;;;;454.20;326.67;;;;;;;12.38;64.17;99035.66;5047668;28;20029;-60
2021/05/28 05:26:47;;;;;;;455.80;335.33;;;;;;;12.38;64.20;99038.22;5039281;28;20036;-60
2021/05/28 05:29:12;;;;;;;457.17;340.07;;;;;;;12.35;63.76;99033.97;5051469;28;20097;-60
2021/05/28 05:31:39;;;;;;;457.63;333.97;;;;;;;12.21;64.80;99042.84;5055233;28;20025;-61
2021/05/28 05:34:05;;;;;;;455.33;325.27;;;;;;;12.23;65.10;99041.94;5048840;28;20033;-61
2021/05/28 05:36:32;;;;;;;452.43;325.63;;;;;;;12.20;65.63;99041.13;5048421;28;20711;-61
2021/05/28 05:38:58;;;;;;;457.87;327.10;;;;;;;12.22;65.42;99037.66;5047030;28;20398;-61
2021/05/28 05:41:26;;;;;;;455.07;327.17;;;;;;;12.39;64.81;99037.31;5048658;28;20271;-61
2021/05/28 05:43:51;;;;;;;456.00;337.03;;;;;;;12.60;64.34;99041.22;5051943;28;20039;-61
2021/05/28 05:46:17;;;;;;;459.43;346.70;;;;;;;12.64;63.62;99048.00;5050403;28;20388;-59
2021/05/28 05:48:42;;;;;;;452.50;330.70;;;;;;;12.69;63.65;99036.69;5051411;28;20131;-61
2021/05/28 05:51:08;;;;;;;454.83;334.93;;;;;;;12.81;63.98;99044.16;5049393;28;20448;-61
2021/05/28 05:53:33;;;;;;;453.97;334.27;;;;;;;12.90;63.42;99055.16;5051263;28;20029;-60
2021/05/28 05:55:59;;;;;;;457.20;339.70;;;;;;;12.82;62.81;99061.28;5054208;28;20032;-60
2021/05/28 05:58:24;;;;;;;460.00;345.50;;;;;;;12.88;63.83;99060.34;5050865;28;20029;-61
2021/05/28 06:00:50;;;;;;;458.77;346.63;;;;;;;12.95;62.96;99067.03;5051751;28;20074;-62
2021/05/28 06:03:15;;;;;;;459.87;351.00;;;;;;;12.89;63.02;99071.47;5048697;28;20036;-61
2021/05/28 06:05:40;;;;;;;459.27;352.03;;;;;;;13.14;63.10;99073.53;5046979;28;20047;-62
2021/05/28 06:08:06;;;;;;;461.57;344.70;;;;;;;13.40;61.42;99080.66;5049832;28;20025;-61
2021/05/28 06:10:31;;;;;;;458.97;359.60;;;;;;;13.45;61.79;99072.81;5049073;28;20060;-61
2021/05/28 06:13:02;;;;;;;460.37;367.37;;;;;;;13.41;61.54;99082.31;5049431;28;20325;-61
2021/05/28 06:15:27;;;;;;;463.03;369.37;;;;;;;13.37;61.26;99065.25;5047929;28;20064;-60
2021/05/28 06:17:53;;;;;;;461.07;362.40;;;;;;;13.33;60.53;99071.34;5049669;28;20032;-60
2021/05/28 06:20:18;;;;;;;463.10;367.63;;;;;;;13.51;61.73;99072.66;5050226;28;20344;-61
2021/05/28 06:22:46;;;;;;;465.00;373.30;;;;;;;13.61;61.73;99066.41;5049521;28;20033;-61
2021/05/28 06:25:12;;;;;;;462.73;371.97;;;;;;;13.52;60.96;99074.38;5049789;28;20133;-62
2021/05/28 06:27:37;;;;;;;462.03;371.37;;;;;;;13.53;60.57;99060.59;5052406;28;20121;-61
2021/05/28 06:30:03;;;;;;;467.50;381.97;;;;;;;13.30;60.70;99080.88;5049343;28;20116;-61
2021/05/28 06:32:29;;;;;;;465.07;380.13;;;;;;;13.23;62.08;99073.31;5050578;28;20293;-63
2021/05/28 06:34:54;;;;;;;461.63;367.60;;;;;;;13.26;61.40;99075.81;5050930;28;20039;-61
2021/05/28 06:37:19;;;;;;;463.53;369.83;;;;;;;13.25;61.96;99068.13;5049705;28;20028;-61
2021/05/28 06:39:45;;;;;;;462.53;370.77;;;;;;;13.35;61.37;99084.22;5052280;28;20409;-61
2021/05/28 06:42:10;;;;;;;463.60;377.63;;;;;;;13.46;60.56;99077.91;5050711;28;20128;-61
2021/05/28 06:44:36;;;;;;;470.43;378.87;;;;;;;13.41;61.31;99072.03;5047157;28;20087;-61
2021/05/28 06:47:01;;;;;;;464.30;373.67;;;;;;;13.38;61.50;99078.97;5051680;28;20099;-61
2021/05/28 06:49:27;;;;;;;464.63;367.77;;;;;;;13.36;61.29;99089.34;5050947;28;20313;-61
2021/05/28 06:51:52;;;;;;;464.93;371.30;;;;;;;13.38;61.47;99086.72;5050196;28;20370;-60
2021/05/28 06:54:17;;;;;;;469.60;386.37;;;;;;;13.65;61.75;99089.50;5047273;28;20036;-61
2021/05/28 06:56:43;;;;;;;464.30;386.20;;;;;;;13.80;59.85;99077.09;5052897;28;20683;-61
2021/05/28 06:59:10;;;;;;;461.90;369.50;;;;;;;13.84;59.09;99081.28;5051371;28;20079;-60
2021/05/28 07:01:35;;;;;;;468.90;398.20;;;;;;;14.16;58.20;99084.78;5050282;28;20112;-61
2021/05/28 07:04:02;;;;;;;467.87;398.77;;;;;;;14.45;58.65;99076.28;5051914;28;20178;-61
2021/05/28 07:06:29;;;;;;;469.70;408.33;;;;;;;14.37;57.20;99113.50;5049941;28;20036;-60
2021/05/28 07:08:55;;;;;;;469.73;403.73;;;;;;;14.45;57.71;99068.53;5051251;28;20056;-60
2021/05/28 07:11:22;;;;;;;469.13;401.00;;;;;;;14.57;57.12;99088.84;5051190;28;20029;-60
2021/05/28 07:13:47;;;;;;;470.23;410.13;;;;;;;14.49;57.11;99093.38;5051431;28;20123;-61
2021/05/28 07:16:13;;;;;;;470.37;413.63;;;;;;;14.56;57.11;99100.03;5048099;28;20127;-62
2021/05/28 07:18:39;;;;;;;470.33;413.70;;;;;;;14.74;56.76;99095.25;5048533;28;20033;-62
2021/05/28 07:21:04;;;;;;;478.30;425.57;;;;;;;14.76;57.48;99084.03;5049269;28;20022;-62
2021/05/28 07:23:30;;;;;;;483.20;430.53;;;;;;;15.01;56.00;99092.75;5048823;28;20094;-60
2021/05/28 07:25:59;;;;;;;489.43;436.50;;;;;;;15.06;55.40;99100.34;5048635;28;20482;-61
2021/05/28 07:28:24;;;;;;;489.83;436.90;;;;;;;15.07;56.34;99092.53;5040772;28;20028;-61
2021/05/28 07:30:51;;;;;;;502.33;449.37;;;;;;;15.05;55.43;99086.59;5049710;28;20040;-61
2021/05/28 07:33:16;;;;;;;507.13;453.93;;;;;;;14.77;54.11;99093.44;5047927;28;20026;-61
2021/05/28 07:35:42;;;;;;;484.80;431.50;;;;;;;14.74;55.80;99100.41;5051475;28;20043;-61
2021/05/28 07:38:08;;;;;;;492.80;439.77;;;;;;;15.13;54.88;99095.84;5048479;28;20034;-61
2021/05/28 07:40:34;;;;;;;487.60;435.10;;;;;;;14.89;54.92;99100.84;5049098;28;20026;-60
2021/05/28 07:43:00;;;;;;;493.23;440.13;;;;;;;14.85;55.31;99100.97;5047718;28;20461;-61
2021/05/28 07:45:25;;;;;;;482.70;430.03;;;;;;;14.85;54.86;99090.66;5050270;28;20625;-60
2021/05/28 07:47:51;;;;;;;503.57;450.17;;;;;;;15.14;54.47;99093.22;5047743;28;20087;-61
2021/05/28 07:50:17;;;;;;;499.23;445.03;;;;;;;15.07;54.76;99096.84;5033205;28;20046;-62
2021/05/28 07:52:42;;;;;;;498.07;444.97;;;;;;;14.94;54.95;99091.22;5046313;28;20151;-62
2021/05/28 07:55:08;;;;;;;508.77;455.40;;;;;;;15.11;54.22;99093.28;5039614;28;20349;-62
2021/05/28 07:57:34;;;;;;;500.90;447.80;;;;;;;15.22;55.02;99083.50;5030076;28;20049;-62
2021/05/28 07:59:59;;;;;;;514.27;460.53;;;;;;;15.17;54.71;99085.38;5047625;28;20255;-61
2021/05/28 08:02:25;;;;;;;506.97;453.70;;;;;;;14.80;55.57;99082.19;5047422;28;20047;-61
2021/05/28 08:04:51;;;;;;;492.90;440.13;;;;;;;14.83;55.66;99087.25;5048828;28;20056;-62
2021/05/28 08:07:16;;;;;;;509.87;456.57;;;;;;;14.68;56.79;99087.69;5048657;28;20074;-61
2021/05/28 08:09:42;;;;;;;507.83;454.73;;;;;;;14.95;56.07;99082.56;5046276;28;20071;-61
2021/05/28 08:12:07;;;;;;;489.53;436.80;;;;;;;15.13;56.14;99081.19;5047748;28;20063;-60
2021/05/28 08:14:33;;;;;;;508.73;455.33;;;;;;;15.12;54.33;99082.06;5048167;28;20025;-62
2021/05/28 08:16:58;;;;;;;508.50;455.47;;;;;;;15.08;54.26;99080.47;5048545;28;20350;-62
2021/05/28 08:19:24;;;;;;;510.07;456.33;;;;;;;15.37;53.88;99075.25;5029486;28;20093;-62
2021/05/28 08:21:50;;;;;;;510.43;457.43;;;;;;;15.46;53.52;99079.31;5047895;28;20116;-61
2021/05/28 08:24:15;;;;;;;530.20;476.70;;;;;;;15.78;54.28;99075.72;5041094;28;20032;-63
2021/05/28 08:26:41;;;;;;;518.40;465.07;;;;;;;15.85;53.29;99075.47;5045874;28;20047;-60
2021/05/28 08:29:08;;;;;;;534.47;480.80;;;;;;;15.78;52.79;99067.97;5047974;28;20036;-60
2021/05/28 08:31:34;;;;;;;530.03;476.50;;;;;;;15.77;53.14;99071.44;5048967;28;20057;-61
2021/05/28 08:33:59;;;;;;;532.50;478.93;;;;;;;15.67;53.95;99070.06;5046544;28;20361;-61
2021/05/28 08:36:25;;;;;;;527.47;474.07;;;;;;;15.54;54.21;99085.94;5046045;28;20116;-62
2021/05/28 08:38:50;;;;;;;528.70;475.33;;;;;;;15.30;54.21;99075.50;5045594;28;20141;-62
2021/05/28 08:41:16;;;;;;;529.10;475.57;;;;;;;15.17;54.32;99072.47;5046729;28;20063;-61
2021/05/28 08:43:44;;;;;;;514.77;461.87;;;;;;;15.63;53.34;99073.63;5047516;28;20308;-60
2021/05/28 08:46:17;;;;;;;527.97;474.50;;;;;;;15.83;52.15;99068.66;5047106;28;20030;-60
2021/05/28 08:48:43;;;;;;;539.20;485.73;;;;;;;16.06;51.51;99071.31;5047091;28;20040;-60
2021/05/28 08:51:09;;;;;;;543.60;489.90;;;;;;;16.06;51.29;99050.63;5049188;28;20120;-60
2021/05/28 08:53:34;;;;;;;551.30;497.50;;;;;;;15.94;50.77;99069.16;5046423;28;20051;-61
2021/05/28 08:56:00;;;;;;;534.53;481.07;;;;;;;16.21;50.67;99044.91;5044673;28;20061;-61
2021/05/28 08:58:28;;;;;;;557.47;503.33;;;;;;;16.52;51.53;99056.75;5050236;28;20028;-61
2021/05/28 09:00:54;;;;;;;571.17;516.63;;;;;;;16.18;50.22;99047.59;5047252;28;20111;-61
2021/05/28 09:03:19;;;;;;;554.63;500.57;;;;;;;16.17;50.73;99056.25;5041860;28;20382;-61
2021/05/28 09:05:45;;;;;;;574.33;519.50;;;;;;;16.45;50.08;99051.81;5046118;28;20033;-61
2021/05/28 09:08:11;;;;;;;566.73;512.27;;;;;;;16.33;50.70;99061.78;5047326;28;20128;-63
2021/05/28 09:10:37;;;;;;;566.43;512.27;;;;;;;16.17;50.53;99060.59;5049500;28;20033;-60
2021/05/28 09:13:21;;;;;;;560.53;506.13;;;;;;;16.39;49.61;99064.97;5045308;28;20499;-61
2021/05/28 09:16:08;;;;;;;563.43;509.20;;;;;;;16.61;50.04;99056.47;5049028;28;20032;-60
2021/05/28 09:18:50;;;;;;;577.80;522.90;;;;;;;16.82;49.90;99060.84;5047764;28;20028;-61
2021/05/28 09:21:33;;;;;;;583.77;529.13;;;;;;;16.93;49.53;99063.88;5046932;28;20033;-61
2021/05/28 09:24:00;;;;;;;584.17;528.90;;;;;;;16.63;49.49;99067.63;5038871;28;20049;-62
2021/05/28 09:26:28;;;;;;;573.43;519.07;;;;;;;16.55;48.98;99054.09;5044133;28;20064;-62
2021/05/28 09:28:55;;;;;;;586.00;531.07;;;;;;;16.48;49.49;99050.00;5048810;28;20386;-62
2021/05/28 09:31:23;;;;;;;572.37;518.07;;;;;;;16.42;50.21;99054.50;5049536;28;20063;-62
2021/05/28 09:33:51;;;;;;;577.37;522.63;;;;;;;16.46;49.83;99063.03;5050464;28;20032;-61
2021/05/28 09:36:24;;;;;;;561.57;507.07;;;;;;;16.16;50.02;99057.19;5045675;28;20040;-62
2021/05/28 09:38:58;;;;;;;555.00;501.13;;;;;;;15.96;51.89;99065.59;5048619;28;20065;-62
2021/05/28 09:41:37;;;;;;;571.85;517.17;;;;;;;16.00;51.26;99064.59;5049925;28;20078;-62
2021/05/28 09:44:20;;;;;;;548.87;494.90;;;;;;;16.35;51.18;99044.44;5052249;28;20025;-61
2021/05/28 09:47:19;;;;;;;553.10;499.33;;;;;;;16.72;48.61;99042.22;5048276;28;20033;-62
2021/05/28 09:49:54;;;;;;;579.03;524.53;;;;;;;17.04;47.88;99046.19;5053899;28;20179;-61
2021/05/28 09:52:24;;;;;;;;;;;;;;;17.20;48.30;99051.63;5052691;28;20032;-61
2021/05/28 09:55:05;;;;;;;578.80;524.30;;;;;;;17.49;47.79;99040.94;5049696;28;19921;-61
2021/05/28 09:57:43;;;;;;;610.03;554.67;;;;;;;17.52;47.99;99040.84;5047044;28;20033;-63
2021/05/28 10:00:21;;;;;;;627.50;571.97;;;;;;;17.64;47.30;99035.19;5051910;28;20451;-61
2021/05/28 10:02:47;;;;;;;626.37;570.70;;;;;;;18.16;46.64;99033.81;5047519;28;20301;-62
2021/05/28 10:05:24;;;;;;;648.23;591.97;;;;;;;18.07;46.70;99034.22;5050709;28;20508;-61
2021/05/28 10:07:51;;;;;;;652.00;595.93;;;;;;;17.87;46.97;99041.13;5049696;28;20400;-62
2021/05/28 10:10:18;;;;;;;651.87;595.83;;;;;;;17.77;47.77;99040.69;5049660;28;20031;-61
2021/05/28 10:12:47;;;;;;;662.07;605.53;;;;;;;17.88;47.54;99038.50;5049665;28;20036;-61
2021/05/28 10:15:14;;;;;;;653.77;597.63;;;;;;;17.77;47.51;99038.13;5055270;28;20439;-61
2021/05/28 10:17:39;;;;;;;658.93;602.80;;;;;;;17.76;48.34;99033.81;5050538;28;20037;-62
2021/05/28 10:20:06;;;;;;;667.33;610.83;;;;;;;17.83;47.52;99024.88;5050988;28;20087;-62
2021/05/28 10:22:32;;;;;;;676.20;619.23;;;;;;;17.95;47.48;99013.97;5048982;28;20020;-62
2021/05/28 10:24:57;;;;;;;662.83;606.53;;;;;;;18.14;47.15;99027.00;5049000;28;20029;-62
2021/05/28 10:27:24;;;;;;;686.23;628.97;;;;;;;18.24;46.91;99023.97;5048376;28;20386;-62
2021/05/28 10:29:51;;;;;;;678.20;621.67;;;;;;;18.27;46.57;99030.75;5050166;28;20039;-62
2021/05/28 10:32:17;;;;;;;686.33;629.20;;;;;;;17.99;47.69;99019.91;5052227;28;20401;-62
2021/05/28 10:35:04;;;;;;;678.83;622.00;;;;;;;17.95;47.80;99015.75;5047645;28;20044;-60
2021/05/28 10:37:31;;;;;;;702.10;644.27;;;;;;;18.12;46.44;99023.66;5047412;28;20139;-61
2021/05/28 10:39:56;;;;;;;676.90;620.33;;;;;;;18.45;46.21;99023.91;5048880;28;20032;-62
2021/05/28 10:42:22;;;;;;;696.00;639.03;;;;;;;18.20;46.03;99019.78;5054867;28;20035;-62
2021/05/28 10:44:48;;;;;;;682.30;625.70;;;;;;;18.52;46.27;99012.34;5051586;28;20115;-62
2021/05/28 10:47:13;;;;;;;682.07;625.10;;;;;;;18.81;45.45;99016.22;5049101;28;20036;-60
2021/05/28 10:50:04;;;;;;;705.03;647.20;;;;;;;18.96;44.75;99007.75;5047617;28;20087;-62
2021/05/28 10:52:35;;;;;;;702.07;644.23;;;;;;;18.77;44.46;99010.34;5046102;28;20112;-61
2021/05/28 10:55:10;;;;;;;693.47;636.60;;;;;;;18.88;45.07;99002.06;5050039;28;20033;-62
2021/05/28 10:57:53;;;;;;;688.83;631.70;;;;;;;18.91;45.01;99010.56;5051266;28;20099;-62
2021/05/28 11:00:25;;;;;;;680.17;623.80;;;;;;;18.60;45.32;98995.53;5047651;28;20381;-60